sensor_id;sensor_type;location;lat;lon;timestamp;temperature;humidity
69503;SHT31;56704;54.242;12.442;2022-07-06T00:00:46;13.69;72.31
69503;SHT31;56704;54.242;12.442;2022-07-06T00:03:12;13.70;72.20
69503;SHT31;56704;54.242;12.442;2022-07-06T00:05:40;13.72;72.14
69503;SHT31;56704;54.242;12.442;2022-07-06T00:08:07;13.72;72.20
69503;SHT31;56704;54.242;12.442;2022-07-06T00:10:33;13.70;72.04
69503;SHT31;56704;54.242;12.442;2022-07-06T00:13:00;13.70;72.12
69503;SHT31;56704;54.242;12.442;2022-07-06T00:15:27;13.70;72.21
69503;SHT31;56704;54.242;12.442;2022-07-06T00:17:53;13.65;72.32
69503;SHT31;56704;54.242;12.442;2022-07-06T00:20:20;13.68;72.34
69503;SHT31;56704;54.242;12.442;2022-07-06T00:22:47;13.69;72.24
69503;SHT31;56704;54.242;12.442;2022-07-06T00:25:14;13.72;72.05
69503;SHT31;56704;54.242;12.442;2022-07-06T00:27:40;13.78;71.90
69503;SHT31;56704;54.242;12.442;2022-07-06T00:30:08;13.82;71.74
69503;SHT31;56704;54.242;12.442;2022-07-06T00:32:34;13.86;71.65
69503;SHT31;56704;54.242;12.442;2022-07-06T00:35:01;13.89;71.37
69503;SHT31;56704;54.242;12.442;2022-07-06T00:37:27;13.91;71.37
69503;SHT31;56704;54.242;12.442;2022-07-06T00:39:55;13.89;71.52
69503;SHT31;56704;54.242;12.442;2022-07-06T00:42:21;13.85;71.70
69503;SHT31;56704;54.242;12.442;2022-07-06T00:44:49;13.79;71.81
69503;SHT31;56704;54.242;12.442;2022-07-06T00:47:16;13.70;72.07
69503;SHT31;56704;54.242;12.442;2022-07-06T00:49:42;13.70;72.35
69503;SHT31;56704;54.242;12.442;2022-07-06T00:52:26;13.63;72.56
69503;SHT31;56704;54.242;12.442;2022-07-06T00:54:54;13.68;72.78
69503;SHT31;56704;54.242;12.442;2022-07-06T00:57:21;13.69;72.75
69503;SHT31;56704;54.242;12.442;2022-07-06T00:59:47;13.69;72.78
69503;SHT31;56704;54.242;12.442;2022-07-06T01:02:14;13.69;72.80
69503;SHT31;56704;54.242;12.442;2022-07-06T01:04:41;13.65;73.00
69503;SHT31;56704;54.242;12.442;2022-07-06T01:07:08;13.66;72.99
69503;SHT31;56704;54.242;12.442;2022-07-06T01:09:35;13.66;73.08
69503;SHT31;56704;54.242;12.442;2022-07-06T01:12:04;13.65;73.10
69503;SHT31;56704;54.242;12.442;2022-07-06T01:14:32;13.65;73.22
69503;SHT31;56704;54.242;12.442;2022-07-06T01:16:59;13.66;73.37
69503;SHT31;56704;54.242;12.442;2022-07-06T01:19:26;13.65;73.45
69503;SHT31;56704;54.242;12.442;2022-07-06T01:21:54;13.59;73.70
69503;SHT31;56704;54.242;12.442;2022-07-06T01:24:21;13.57;73.88
69503;SHT31;56704;54.242;12.442;2022-07-06T01:26:48;13.57;73.93
69503;SHT31;56704;54.242;12.442;2022-07-06T01:29:15;13.55;74.12
69503;SHT31;56704;54.242;12.442;2022-07-06T01:31:47;13.54;74.28
69503;SHT31;56704;54.242;12.442;2022-07-06T01:34:16;13.54;74.24
69503;SHT31;56704;54.242;12.442;2022-07-06T01:36:43;13.57;74.34
69503;SHT31;56704;54.242;12.442;2022-07-06T01:39:11;13.58;74.35
69503;SHT31;56704;54.242;12.442;2022-07-06T01:41:38;13.61;74.36
69503;SHT31;56704;54.242;12.442;2022-07-06T01:44:04;13.63;74.23
69503;SHT31;56704;54.242;12.442;2022-07-06T01:46:31;13.69;74.18
69503;SHT31;56704;54.242;12.442;2022-07-06T01:48:58;13.85;73.73
69503;SHT31;56704;54.242;12.442;2022-07-06T01:51:25;13.91;73.51
69503;SHT31;56704;54.242;12.442;2022-07-06T01:53:51;13.96;73.36
69503;SHT31;56704;54.242;12.442;2022-07-06T01:56:19;13.98;73.11
69503;SHT31;56704;54.242;12.442;2022-07-06T01:58:47;14.07;73.27
69503;SHT31;56704;54.242;12.442;2022-07-06T02:01:15;14.21;71.82
69503;SHT31;56704;54.242;12.442;2022-07-06T02:03:42;14.41;70.22
69503;SHT31;56704;54.242;12.442;2022-07-06T02:06:10;14.61;68.53
69503;SHT31;56704;54.242;12.442;2022-07-06T02:08:37;14.72;67.90
69503;SHT31;56704;54.242;12.442;2022-07-06T02:11:04;14.82;67.46
69503;SHT31;56704;54.242;12.442;2022-07-06T02:13:33;14.89;67.49
69503;SHT31;56704;54.242;12.442;2022-07-06T02:16:00;14.93;67.54
69503;SHT31;56704;54.242;12.442;2022-07-06T02:18:26;14.98;67.67
69503;SHT31;56704;54.242;12.442;2022-07-06T02:20:53;14.96;67.82
69503;SHT31;56704;54.242;12.442;2022-07-06T02:23:19;14.96;68.10
69503;SHT31;56704;54.242;12.442;2022-07-06T02:25:46;14.98;68.39
69503;SHT31;56704;54.242;12.442;2022-07-06T02:28:13;15.02;68.69
69503;SHT31;56704;54.242;12.442;2022-07-06T02:30:41;15.02;68.89
69503;SHT31;56704;54.242;12.442;2022-07-06T02:33:07;14.99;69.10
69503;SHT31;56704;54.242;12.442;2022-07-06T02:35:34;15.03;69.49
69503;SHT31;56704;54.242;12.442;2022-07-06T02:38:00;14.40;81.94
69503;SHT31;56704;54.242;12.442;2022-07-06T02:40:27;13.59;84.54
69503;SHT31;56704;54.242;12.442;2022-07-06T02:42:53;12.93;84.79
69503;SHT31;56704;54.242;12.442;2022-07-06T02:45:20;12.50;85.97
69503;SHT31;56704;54.242;12.442;2022-07-06T02:47:48;12.32;86.71
69503;SHT31;56704;54.242;12.442;2022-07-06T02:50:16;12.26;87.21
69503;SHT31;56704;54.242;12.442;2022-07-06T02:52:42;12.22;87.84
69503;SHT31;56704;54.242;12.442;2022-07-06T02:55:09;12.11;88.10
69503;SHT31;56704;54.242;12.442;2022-07-06T02:57:35;12.12;88.58
69503;SHT31;56704;54.242;12.442;2022-07-06T03:00:03;12.18;88.87
69503;SHT31;56704;54.242;12.442;2022-07-06T03:02:30;12.25;89.14
69503;SHT31;56704;54.242;12.442;2022-07-06T03:04:58;12.28;89.34
69503;SHT31;56704;54.242;12.442;2022-07-06T03:07:25;12.32;89.52
69503;SHT31;56704;54.242;12.442;2022-07-06T03:09:52;12.33;89.67
69503;SHT31;56704;54.242;12.442;2022-07-06T03:12:18;12.40;89.83
69503;SHT31;56704;54.242;12.442;2022-07-06T03:14:45;12.43;89.93
69503;SHT31;56704;54.242;12.442;2022-07-06T03:17:11;12.53;90.03
69503;SHT31;56704;54.242;12.442;2022-07-06T03:19:38;12.56;90.08
69503;SHT31;56704;54.242;12.442;2022-07-06T03:22:06;12.64;90.12
69503;SHT31;56704;54.242;12.442;2022-07-06T03:24:32;12.72;90.17
69503;SHT31;56704;54.242;12.442;2022-07-06T03:26:59;12.76;90.21
69503;SHT31;56704;54.242;12.442;2022-07-06T03:29:28;12.84;90.20
69503;SHT31;56704;54.242;12.442;2022-07-06T03:31:54;12.91;90.24
69503;SHT31;56704;54.242;12.442;2022-07-06T03:34:21;12.94;90.27
69503;SHT31;56704;54.242;12.442;2022-07-06T03:36:47;13.01;90.32
69503;SHT31;56704;54.242;12.442;2022-07-06T03:39:15;13.04;90.31
69503;SHT31;56704;54.242;12.442;2022-07-06T03:41:42;13.10;90.29
69503;SHT31;56704;54.242;12.442;2022-07-06T03:44:08;13.12;90.34
69503;SHT31;56704;54.242;12.442;2022-07-06T03:46:35;13.20;90.28
69503;SHT31;56704;54.242;12.442;2022-07-06T03:49:02;13.14;90.26
69503;SHT31;56704;54.242;12.442;2022-07-06T03:51:28;13.00;90.11
69503;SHT31;56704;54.242;12.442;2022-07-06T03:53:55;12.94;89.88
69503;SHT31;56704;54.242;12.442;2022-07-06T03:56:23;12.97;89.78
69503;SHT31;56704;54.242;12.442;2022-07-06T03:58:56;13.00;89.81
69503;SHT31;56704;54.242;12.442;2022-07-06T04:01:23;12.97;89.52
69503;SHT31;56704;54.242;12.442;2022-07-06T04:03:50;12.96;89.07
69503;SHT31;56704;54.242;12.442;2022-07-06T04:06:16;13.01;88.92
69503;SHT31;56704;54.242;12.442;2022-07-06T04:08:43;12.96;88.43
69503;SHT31;56704;54.242;12.442;2022-07-06T04:11:10;12.90;88.22
69503;SHT31;56704;54.242;12.442;2022-07-06T04:13:38;12.64;89.29
69503;SHT31;56704;54.242;12.442;2022-07-06T04:16:05;12.57;92.06
69503;SHT31;56704;54.242;12.442;2022-07-06T04:18:31;12.61;92.25
69503;SHT31;56704;54.242;12.442;2022-07-06T04:20:58;12.72;92.35
69503;SHT31;56704;54.242;12.442;2022-07-06T04:23:25;12.79;92.42
69503;SHT31;56704;54.242;12.442;2022-07-06T04:25:52;12.81;92.40
69503;SHT31;56704;54.242;12.442;2022-07-06T04:28:18;12.81;92.45
69503;SHT31;56704;54.242;12.442;2022-07-06T04:30:46;12.75;92.49
69503;SHT31;56704;54.242;12.442;2022-07-06T04:33:13;12.69;92.49
69503;SHT31;56704;54.242;12.442;2022-07-06T04:35:40;12.66;92.52
69503;SHT31;56704;54.242;12.442;2022-07-06T04:38:06;12.64;92.52
69503;SHT31;56704;54.242;12.442;2022-07-06T04:40:33;12.67;92.55
69503;SHT31;56704;54.242;12.442;2022-07-06T04:42:59;12.69;92.58
69503;SHT31;56704;54.242;12.442;2022-07-06T04:45:26;12.67;92.55
69503;SHT31;56704;54.242;12.442;2022-07-06T04:47:54;12.69;92.58
69503;SHT31;56704;54.242;12.442;2022-07-06T04:50:21;12.70;92.55
69503;SHT31;56704;54.242;12.442;2022-07-06T04:52:47;12.69;92.52
69503;SHT31;56704;54.242;12.442;2022-07-06T04:55:14;12.75;92.53
69503;SHT31;56704;54.242;12.442;2022-07-06T04:57:40;12.79;92.48
69503;SHT31;56704;54.242;12.442;2022-07-06T05:00:09;12.80;92.44
69503;SHT31;56704;54.242;12.442;2022-07-06T05:02:36;12.93;92.34
69503;SHT31;56704;54.242;12.442;2022-07-06T05:05:04;13.07;92.24
69503;SHT31;56704;54.242;12.442;2022-07-06T05:07:31;13.18;92.11
69503;SHT31;56704;54.242;12.442;2022-07-06T05:09:59;13.22;91.89
69503;SHT31;56704;54.242;12.442;2022-07-06T05:12:25;13.24;91.66
69503;SHT31;56704;54.242;12.442;2022-07-06T05:14:52;13.28;91.35
69503;SHT31;56704;54.242;12.442;2022-07-06T05:17:18;13.24;91.11
69503;SHT31;56704;54.242;12.442;2022-07-06T05:19:45;13.27;90.74
69503;SHT31;56704;54.242;12.442;2022-07-06T05:22:13;13.25;90.55
69503;SHT31;56704;54.242;12.442;2022-07-06T05:24:39;13.24;90.46
69503;SHT31;56704;54.242;12.442;2022-07-06T05:27:06;13.24;90.53
69503;SHT31;56704;54.242;12.442;2022-07-06T05:29:32;13.25;90.54
69503;SHT31;56704;54.242;12.442;2022-07-06T05:31:59;13.20;90.53
69503;SHT31;56704;54.242;12.442;2022-07-06T05:34:26;13.20;90.59
69503;SHT31;56704;54.242;12.442;2022-07-06T05:36:53;13.18;90.61
69503;SHT31;56704;54.242;12.442;2022-07-06T05:39:20;13.21;90.61
69503;SHT31;56704;54.242;12.442;2022-07-06T05:41:48;13.31;90.64
69503;SHT31;56704;54.242;12.442;2022-07-06T05:44:15;13.47;90.78
69503;SHT31;56704;54.242;12.442;2022-07-06T05:46:42;13.57;90.82
69503;SHT31;56704;54.242;12.442;2022-07-06T05:49:08;13.62;90.87
69503;SHT31;56704;54.242;12.442;2022-07-06T05:51:55;13.61;90.81
69503;SHT31;56704;54.242;12.442;2022-07-06T05:54:26;13.72;90.80
69503;SHT31;56704;54.242;12.442;2022-07-06T05:57:01;13.75;90.77
69503;SHT31;56704;54.242;12.442;2022-07-06T05:59:28;13.75;90.74
69503;SHT31;56704;54.242;12.442;2022-07-06T06:01:57;13.79;90.75
69503;SHT31;56704;54.242;12.442;2022-07-06T06:04:24;13.80;90.57
69503;SHT31;56704;54.242;12.442;2022-07-06T06:06:50;13.80;90.11
69503;SHT31;56704;54.242;12.442;2022-07-06T06:09:17;13.79;89.57
69503;SHT31;56704;54.242;12.442;2022-07-06T06:11:45;13.65;87.90
69503;SHT31;56704;54.242;12.442;2022-07-06T06:14:11;13.70;86.79
69503;SHT31;56704;54.242;12.442;2022-07-06T06:16:38;13.68;87.24
69503;SHT31;56704;54.242;12.442;2022-07-06T06:19:05;13.72;87.26
69503;SHT31;56704;54.242;12.442;2022-07-06T06:21:31;13.73;87.54
69503;SHT31;56704;54.242;12.442;2022-07-06T06:23:58;13.75;87.50
69503;SHT31;56704;54.242;12.442;2022-07-06T06:26:24;13.85;87.73
69503;SHT31;56704;54.242;12.442;2022-07-06T06:28:52;13.89;87.87
69503;SHT31;56704;54.242;12.442;2022-07-06T06:31:19;13.96;88.37
69503;SHT31;56704;54.242;12.442;2022-07-06T06:33:46;14.00;88.24
69503;SHT31;56704;54.242;12.442;2022-07-06T06:36:12;13.99;88.14
69503;SHT31;56704;54.242;12.442;2022-07-06T06:38:39;13.95;87.79
69503;SHT31;56704;54.242;12.442;2022-07-06T06:41:06;13.95;88.03
69503;SHT31;56704;54.242;12.442;2022-07-06T06:43:33;13.95;88.13
69503;SHT31;56704;54.242;12.442;2022-07-06T06:46:01;13.93;88.00
69503;SHT31;56704;54.242;12.442;2022-07-06T06:48:27;13.91;86.84
69503;SHT31;56704;54.242;12.442;2022-07-06T06:50:54;14.07;86.28
69503;SHT31;56704;54.242;12.442;2022-07-06T06:53:21;14.31;86.90
69503;SHT31;56704;54.242;12.442;2022-07-06T06:55:47;14.37;85.96
69503;SHT31;56704;54.242;12.442;2022-07-06T06:58:14;14.42;85.27
69503;SHT31;56704;54.242;12.442;2022-07-06T07:00:40;14.45;84.55
69503;SHT31;56704;54.242;12.442;2022-07-06T07:03:09;14.51;83.88
69503;SHT31;56704;54.242;12.442;2022-07-06T07:05:36;14.61;84.36
69503;SHT31;56704;54.242;12.442;2022-07-06T07:08:03;14.61;83.34
69503;SHT31;56704;54.242;12.442;2022-07-06T07:10:30;14.71;84.05
69503;SHT31;56704;54.242;12.442;2022-07-06T07:12:56;14.71;83.88
69503;SHT31;56704;54.242;12.442;2022-07-06T07:15:23;14.67;83.89
69503;SHT31;56704;54.242;12.442;2022-07-06T07:17:50;14.64;83.28
69503;SHT31;56704;54.242;12.442;2022-07-06T07:20:18;14.68;83.67
69503;SHT31;56704;54.242;12.442;2022-07-06T07:22:44;14.65;81.84
69503;SHT31;56704;54.242;12.442;2022-07-06T07:25:11;14.75;80.72
69503;SHT31;56704;54.242;12.442;2022-07-06T07:27:38;14.84;80.88
69503;SHT31;56704;54.242;12.442;2022-07-06T07:30:05;14.87;80.37
69503;SHT31;56704;54.242;12.442;2022-07-06T07:32:32;14.82;78.79
69503;SHT31;56704;54.242;12.442;2022-07-06T07:35:00;14.81;76.62
69503;SHT31;56704;54.242;12.442;2022-07-06T07:37:29;14.82;79.03
69503;SHT31;56704;54.242;12.442;2022-07-06T07:39:55;14.89;78.81
69503;SHT31;56704;54.242;12.442;2022-07-06T07:42:22;14.92;76.68
69503;SHT31;56704;54.242;12.442;2022-07-06T07:44:49;14.85;75.62
69503;SHT31;56704;54.242;12.442;2022-07-06T07:47:15;14.89;76.72
69503;SHT31;56704;54.242;12.442;2022-07-06T07:49:42;14.92;77.85
69503;SHT31;56704;54.242;12.442;2022-07-06T07:52:10;14.98;77.96
69503;SHT31;56704;54.242;12.442;2022-07-06T07:54:38;14.96;78.78
69503;SHT31;56704;54.242;12.442;2022-07-06T07:57:04;14.98;78.83
69503;SHT31;56704;54.242;12.442;2022-07-06T07:59:33;15.03;78.95
69503;SHT31;56704;54.242;12.442;2022-07-06T08:02:01;14.98;75.04
69503;SHT31;56704;54.242;12.442;2022-07-06T08:04:27;14.93;77.03
69503;SHT31;56704;54.242;12.442;2022-07-06T08:06:54;14.98;78.77
69503;SHT31;56704;54.242;12.442;2022-07-06T08:09:21;15.03;79.33
69503;SHT31;56704;54.242;12.442;2022-07-06T08:11:48;15.09;78.58
69503;SHT31;56704;54.242;12.442;2022-07-06T08:14:16;15.20;79.18
69503;SHT31;56704;54.242;12.442;2022-07-06T08:16:43;15.35;79.56
69503;SHT31;56704;54.242;12.442;2022-07-06T08:19:09;15.36;77.29
69503;SHT31;56704;54.242;12.442;2022-07-06T08:21:39;15.44;77.61
69503;SHT31;56704;54.242;12.442;2022-07-06T08:24:06;15.42;78.43
69503;SHT31;56704;54.242;12.442;2022-07-06T08:26:32;15.50;76.36
69503;SHT31;56704;54.242;12.442;2022-07-06T08:29:01;15.63;77.86
69503;SHT31;56704;54.242;12.442;2022-07-06T08:31:28;15.73;74.78
69503;SHT31;56704;54.242;12.442;2022-07-06T08:33:54;15.84;74.93
69503;SHT31;56704;54.242;12.442;2022-07-06T08:36:22;15.87;75.70
69503;SHT31;56704;54.242;12.442;2022-07-06T08:38:49;15.83;76.35
69503;SHT31;56704;54.242;12.442;2022-07-06T08:41:16;15.71;75.46
69503;SHT31;56704;54.242;12.442;2022-07-06T08:43:43;15.59;75.36
69503;SHT31;56704;54.242;12.442;2022-07-06T08:46:13;15.57;75.72
69503;SHT31;56704;54.242;12.442;2022-07-06T08:48:40;15.47;72.91
69503;SHT31;56704;54.242;12.442;2022-07-06T08:51:07;15.44;73.82
69503;SHT31;56704;54.242;12.442;2022-07-06T08:53:34;15.60;75.97
69503;SHT31;56704;54.242;12.442;2022-07-06T08:56:01;15.83;76.56
69503;SHT31;56704;54.242;12.442;2022-07-06T08:58:27;16.04;73.95
69503;SHT31;56704;54.242;12.442;2022-07-06T09:00:54;16.15;72.50
69503;SHT31;56704;54.242;12.442;2022-07-06T09:03:23;16.19;73.99
69503;SHT31;56704;54.242;12.442;2022-07-06T09:05:50;16.38;73.33
69503;SHT31;56704;54.242;12.442;2022-07-06T09:08:18;16.66;65.84
69503;SHT31;56704;54.242;12.442;2022-07-06T09:10:45;17.03;64.34
69503;SHT31;56704;54.242;12.442;2022-07-06T09:13:12;17.13;63.17
69503;SHT31;56704;54.242;12.442;2022-07-06T09:15:38;17.06;62.73
69503;SHT31;56704;54.242;12.442;2022-07-06T09:18:06;17.07;62.28
69503;SHT31;56704;54.242;12.442;2022-07-06T09:20:34;17.16;65.37
69503;SHT31;56704;54.242;12.442;2022-07-06T09:23:02;17.14;64.14
69503;SHT31;56704;54.242;12.442;2022-07-06T09:25:30;17.18;61.46
69503;SHT31;56704;54.242;12.442;2022-07-06T09:27:58;17.34;60.65
69503;SHT31;56704;54.242;12.442;2022-07-06T09:30:25;17.35;61.21
69503;SHT31;56704;54.242;12.442;2022-07-06T09:32:53;17.51;63.35
69503;SHT31;56704;54.242;12.442;2022-07-06T09:35:22;17.47;60.52
69503;SHT31;56704;54.242;12.442;2022-07-06T09:38:01;17.41;61.84
69503;SHT31;56704;54.242;12.442;2022-07-06T09:40:30;17.49;63.02
69503;SHT31;56704;54.242;12.442;2022-07-06T09:43:07;17.75;65.25
69503;SHT31;56704;54.242;12.442;2022-07-06T09:45:34;17.99;59.86
69503;SHT31;56704;54.242;12.442;2022-07-06T09:48:06;18.29;59.36
69503;SHT31;56704;54.242;12.442;2022-07-06T09:50:38;18.30;60.50
69503;SHT31;56704;54.242;12.442;2022-07-06T09:53:06;18.22;59.80
69503;SHT31;56704;54.242;12.442;2022-07-06T09:55:33;18.23;56.73
69503;SHT31;56704;54.242;12.442;2022-07-06T09:57:59;18.14;59.06
69503;SHT31;56704;54.242;12.442;2022-07-06T10:00:26;18.29;57.83
69503;SHT31;56704;54.242;12.442;2022-07-06T10:02:54;18.17;57.14
69503;SHT31;56704;54.242;12.442;2022-07-06T10:05:22;18.16;59.16
69503;SHT31;56704;54.242;12.442;2022-07-06T10:07:55;18.19;55.89
69503;SHT31;56704;54.242;12.442;2022-07-06T10:10:25;18.30;56.88
69503;SHT31;56704;54.242;12.442;2022-07-06T10:12:51;18.65;57.38
69503;SHT31;56704;54.242;12.442;2022-07-06T10:15:21;18.89;56.31
69503;SHT31;56704;54.242;12.442;2022-07-06T10:17:49;18.87;55.80
69503;SHT31;56704;54.242;12.442;2022-07-06T10:20:17;18.74;54.34
69503;SHT31;56704;54.242;12.442;2022-07-06T10:22:44;18.89;56.95
69503;SHT31;56704;54.242;12.442;2022-07-06T10:25:11;19.15;55.21
69503;SHT31;56704;54.242;12.442;2022-07-06T10:27:39;19.39;53.81
69503;SHT31;56704;54.242;12.442;2022-07-06T10:30:07;19.28;52.97
69503;SHT31;56704;54.242;12.442;2022-07-06T10:32:34;18.99;54.70
69503;SHT31;56704;54.242;12.442;2022-07-06T10:35:02;18.88;54.16
69503;SHT31;56704;54.242;12.442;2022-07-06T10:37:28;18.74;56.00
69503;SHT31;56704;54.242;12.442;2022-07-06T10:39:55;18.46;54.52
69503;SHT31;56704;54.242;12.442;2022-07-06T10:42:45;18.41;55.48
69503;SHT31;56704;54.242;12.442;2022-07-06T10:45:19;18.60;55.65
69503;SHT31;56704;54.242;12.442;2022-07-06T10:47:46;18.74;54.74
69503;SHT31;56704;54.242;12.442;2022-07-06T10:50:13;18.78;53.43
69503;SHT31;56704;54.242;12.442;2022-07-06T10:52:50;18.91;51.77
69503;SHT31;56704;54.242;12.442;2022-07-06T10:55:28;18.88;52.03
69503;SHT31;56704;54.242;12.442;2022-07-06T10:57:57;18.78;51.32
69503;SHT31;56704;54.242;12.442;2022-07-06T11:00:23;19.08;54.13
69503;SHT31;56704;54.242;12.442;2022-07-06T11:02:52;19.52;54.11
69503;SHT31;56704;54.242;12.442;2022-07-06T11:05:41;20.15;51.66
69503;SHT31;56704;54.242;12.442;2022-07-06T11:08:09;20.42;51.51
69503;SHT31;56704;54.242;12.442;2022-07-06T11:10:46;20.13;47.73
69503;SHT31;56704;54.242;12.442;2022-07-06T11:13:26;19.98;49.45
69503;SHT31;56704;54.242;12.442;2022-07-06T11:16:00;20.07;50.20
69503;SHT31;56704;54.242;12.442;2022-07-06T11:18:27;20.34;50.76
69503;SHT31;56704;54.242;12.442;2022-07-06T11:21:14;20.69;48.80
69503;SHT31;56704;54.242;12.442;2022-07-06T11:23:41;20.38;49.33
69503;SHT31;56704;54.242;12.442;2022-07-06T11:26:09;20.35;49.80
69503;SHT31;56704;54.242;12.442;2022-07-06T11:28:37;20.31;49.22
69503;SHT31;56704;54.242;12.442;2022-07-06T11:31:04;19.91;49.74
69503;SHT31;56704;54.242;12.442;2022-07-06T11:33:31;19.81;52.30
69503;SHT31;56704;54.242;12.442;2022-07-06T11:36:11;19.66;52.12
69503;SHT31;56704;54.242;12.442;2022-07-06T11:38:40;19.32;53.35
69503;SHT31;56704;54.242;12.442;2022-07-06T11:41:11;18.72;54.19
69503;SHT31;56704;54.242;12.442;2022-07-06T11:43:44;18.38;56.81
69503;SHT31;56704;54.242;12.442;2022-07-06T11:46:27;18.16;58.00
69503;SHT31;56704;54.242;12.442;2022-07-06T11:48:55;17.95;59.47
69503;SHT31;56704;54.242;12.442;2022-07-06T11:51:23;18.34;59.00
69503;SHT31;56704;54.242;12.442;2022-07-06T11:53:52;18.77;58.27
69503;SHT31;56704;54.242;12.442;2022-07-06T11:56:21;19.05;55.64
69503;SHT31;56704;54.242;12.442;2022-07-06T11:58:53;19.18;57.44
69503;SHT31;56704;54.242;12.442;2022-07-06T12:01:20;19.02;53.25
69503;SHT31;56704;54.242;12.442;2022-07-06T12:03:47;19.22;55.39
69503;SHT31;56704;54.242;12.442;2022-07-06T12:06:18;18.98;54.46
69503;SHT31;56704;54.242;12.442;2022-07-06T12:08:46;19.08;55.88
69503;SHT31;56704;54.242;12.442;2022-07-06T12:11:19;19.76;53.16
69503;SHT31;56704;54.242;12.442;2022-07-06T12:13:47;19.77;54.32
69503;SHT31;56704;54.242;12.442;2022-07-06T12:16:16;19.74;53.27
69503;SHT31;56704;54.242;12.442;2022-07-06T12:18:44;19.76;53.32
69503;SHT31;56704;54.242;12.442;2022-07-06T12:21:14;19.57;53.01
69503;SHT31;56704;54.242;12.442;2022-07-06T12:23:44;19.32;54.17
69503;SHT31;56704;54.242;12.442;2022-07-06T12:26:12;19.16;54.68
69503;SHT31;56704;54.242;12.442;2022-07-06T12:28:39;18.99;54.77
69503;SHT31;56704;54.242;12.442;2022-07-06T12:31:06;18.83;55.01
69503;SHT31;56704;54.242;12.442;2022-07-06T12:33:34;18.50;56.59
69503;SHT31;56704;54.242;12.442;2022-07-06T12:36:12;18.41;57.08
69503;SHT31;56704;54.242;12.442;2022-07-06T12:38:44;18.25;56.85
69503;SHT31;56704;54.242;12.442;2022-07-06T12:41:26;18.03;56.95
69503;SHT31;56704;54.242;12.442;2022-07-06T12:44:03;18.00;57.52
69503;SHT31;56704;54.242;12.442;2022-07-06T12:46:32;17.88;57.11
69503;SHT31;56704;54.242;12.442;2022-07-06T12:49:03;17.90;58.33
69503;SHT31;56704;54.242;12.442;2022-07-06T12:51:48;17.89;58.77
69503;SHT31;56704;54.242;12.442;2022-07-06T12:54:15;17.83;58.45
69503;SHT31;56704;54.242;12.442;2022-07-06T12:57:05;17.61;59.22
69503;SHT31;56704;54.242;12.442;2022-07-06T12:59:34;17.54;61.02
69503;SHT31;56704;54.242;12.442;2022-07-06T13:02:01;17.31;62.37
69503;SHT31;56704;54.242;12.442;2022-07-06T13:04:31;17.14;62.97
69503;SHT31;56704;54.242;12.442;2022-07-06T13:06:58;17.14;62.60
69503;SHT31;56704;54.242;12.442;2022-07-06T13:09:27;17.20;62.99
69503;SHT31;56704;54.242;12.442;2022-07-06T13:11:53;17.32;62.49
69503;SHT31;56704;54.242;12.442;2022-07-06T13:14:20;17.31;60.90
69503;SHT31;56704;54.242;12.442;2022-07-06T13:16:47;17.89;61.72
69503;SHT31;56704;54.242;12.442;2022-07-06T13:19:14;18.78;58.70
69503;SHT31;56704;54.242;12.442;2022-07-06T13:21:42;19.59;56.63
69503;SHT31;56704;54.242;12.442;2022-07-06T13:24:10;19.86;55.08
69503;SHT31;56704;54.242;12.442;2022-07-06T13:26:36;20.52;55.46
69503;SHT31;56704;54.242;12.442;2022-07-06T13:29:03;20.93;53.45
69503;SHT31;56704;54.242;12.442;2022-07-06T13:31:32;21.37;49.66
69503;SHT31;56704;54.242;12.442;2022-07-06T13:33:59;21.37;47.68
69503;SHT31;56704;54.242;12.442;2022-07-06T13:36:25;20.83;48.01
69503;SHT31;56704;54.242;12.442;2022-07-06T13:38:53;21.20;48.32
69503;SHT31;56704;54.242;12.442;2022-07-06T13:41:20;21.24;47.94
69503;SHT31;56704;54.242;12.442;2022-07-06T13:43:47;21.33;46.85
69503;SHT31;56704;54.242;12.442;2022-07-06T13:46:13;21.53;47.22
69503;SHT31;56704;54.242;12.442;2022-07-06T13:48:42;21.91;45.98
69503;SHT31;56704;54.242;12.442;2022-07-06T13:51:09;21.77;46.53
69503;SHT31;56704;54.242;12.442;2022-07-06T13:53:35;21.77;46.64
69503;SHT31;56704;54.242;12.442;2022-07-06T13:56:04;22.02;47.56
69503;SHT31;56704;54.242;12.442;2022-07-06T13:58:30;22.25;45.20
69503;SHT31;56704;54.242;12.442;2022-07-06T14:00:57;22.23;46.04
69503;SHT31;56704;54.242;12.442;2022-07-06T14:03:24;22.30;45.57
69503;SHT31;56704;54.242;12.442;2022-07-06T14:05:55;22.32;45.58
69503;SHT31;56704;54.242;12.442;2022-07-06T14:08:21;22.37;45.58
69503;SHT31;56704;54.242;12.442;2022-07-06T14:10:48;22.60;45.77
69503;SHT31;56704;54.242;12.442;2022-07-06T14:13:16;22.84;45.08
69503;SHT31;56704;54.242;12.442;2022-07-06T14:15:42;22.78;45.32
69503;SHT31;56704;54.242;12.442;2022-07-06T14:18:09;22.94;44.04
69503;SHT31;56704;54.242;12.442;2022-07-06T14:20:36;22.68;44.54
69503;SHT31;56704;54.242;12.442;2022-07-06T14:23:02;22.78;45.70
69503;SHT31;56704;54.242;12.442;2022-07-06T14:25:31;22.91;44.49
69503;SHT31;56704;54.242;12.442;2022-07-06T14:27:58;23.24;43.61
69503;SHT31;56704;54.242;12.442;2022-07-06T14:30:26;23.07;43.20
69503;SHT31;56704;54.242;12.442;2022-07-06T14:32:53;23.14;43.42
69503;SHT31;56704;54.242;12.442;2022-07-06T14:35:20;23.15;43.51
69503;SHT31;56704;54.242;12.442;2022-07-06T14:37:47;23.11;42.17
69503;SHT31;56704;54.242;12.442;2022-07-06T14:40:13;22.84;42.57
69503;SHT31;56704;54.242;12.442;2022-07-06T14:42:40;23.24;40.90
69503;SHT31;56704;54.242;12.442;2022-07-06T14:45:07;22.93;40.67
69503;SHT31;56704;54.242;12.442;2022-07-06T14:47:35;22.80;42.78
69503;SHT31;56704;54.242;12.442;2022-07-06T14:50:02;22.71;41.74
69503;SHT31;56704;54.242;12.442;2022-07-06T14:52:29;22.35;42.60
69503;SHT31;56704;54.242;12.442;2022-07-06T14:54:56;22.73;41.91
69503;SHT31;56704;54.242;12.442;2022-07-06T14:57:24;22.71;38.11
69503;SHT31;56704;54.242;12.442;2022-07-06T14:59:51;22.39;40.56
69503;SHT31;56704;54.242;12.442;2022-07-06T15:02:17;22.16;41.39
69503;SHT31;56704;54.242;12.442;2022-07-06T15:04:45;22.25;42.93
69503;SHT31;56704;54.242;12.442;2022-07-06T15:07:12;22.40;42.29
69503;SHT31;56704;54.242;12.442;2022-07-06T15:09:39;22.33;42.53
69503;SHT31;56704;54.242;12.442;2022-07-06T15:12:07;22.47;44.22
69503;SHT31;56704;54.242;12.442;2022-07-06T15:14:33;22.52;44.35
69503;SHT31;56704;54.242;12.442;2022-07-06T15:17:00;22.97;42.95
69503;SHT31;56704;54.242;12.442;2022-07-06T15:19:27;23.10;39.46